sensor_id;sensor_type;location;lat;lon;timestamp;P1;durP1;ratioP1;P2;durP2;ratioP2
78563;SDS011;67856;47.754;19.088;2023-07-02T00:00:40;4.43;;;3.10;;
78563;SDS011;67856;47.754;19.088;2023-07-02T00:03:42;3.28;;;2.90;;
78563;SDS011;67856;47.754;19.088;2023-07-02T00:06:45;3.40;;;2.88;;
78563;SDS011;67856;47.754;19.088;2023-07-02T00:09:48;3.05;;;2.75;;
78563;SDS011;67856;47.754;19.088;2023-07-02T00:12:51;3.70;;;3.20;;
78563;SDS011;67856;47.754;19.088;2023-07-02T00:15:53;3.10;;;2.80;;
78563;SDS011;67856;47.754;19.088;2023-07-02T00:18:56;3.38;;;3.08;;
78563;SDS011;67856;47.754;19.088;2023-07-02T00:21:59;3.80;;;3.40;;
78563;SDS011;67856;47.754;19.088;2023-07-02T00:25:01;3.55;;;3.20;;
78563;SDS011;67856;47.754;19.088;2023-07-02T00:28:04;3.40;;;3.10;;
78563;SDS011;67856;47.754;19.088;2023-07-02T00:31:07;3.40;;;3.10;;
78563;SDS011;67856;47.754;19.088;2023-07-02T00:34:10;3.38;;;3.08;;
78563;SDS011;67856;47.754;19.088;2023-07-02T00:37:15;3.40;;;2.90;;
78563;SDS011;67856;47.754;19.088;2023-07-02T00:40:17;3.53;;;3.22;;
78563;SDS011;67856;47.754;19.088;2023-07-02T00:43:20;4.00;;;2.77;;
78563;SDS011;67856;47.754;19.088;2023-07-02T00:46:23;3.80;;;3.40;;
78563;SDS011;67856;47.754;19.088;2023-07-02T00:49:28;3.60;;;3.30;;
78563;SDS011;67856;47.754;19.088;2023-07-02T00:52:30;3.25;;;2.95;;
78563;SDS011;67856;47.754;19.088;2023-07-02T00:55:33;3.30;;;3.00;;
78563;SDS011;67856;47.754;19.088;2023-07-02T00:58:37;3.30;;;3.00;;
78563;SDS011;67856;47.754;19.088;2023-07-02T01:01:41;3.60;;;3.30;;
78563;SDS011;67856;47.754;19.088;2023-07-02T01:04:43;3.60;;;3.30;;
78563;SDS011;67856;47.754;19.088;2023-07-02T01:07:52;4.22;;;3.20;;
78563;SDS011;67856;47.754;19.088;2023-07-02T01:10:55;3.60;;;3.20;;
78563;SDS011;67856;47.754;19.088;2023-07-02T01:13:59;4.10;;;3.47;;
78563;SDS011;67856;47.754;19.088;2023-07-02T01:17:05;3.40;;;3.10;;
78563;SDS011;67856;47.754;19.088;2023-07-02T01:20:08;3.58;;;3.20;;
78563;SDS011;67856;47.754;19.088;2023-07-02T01:23:11;3.60;;;3.25;;
78563;SDS011;67856;47.754;19.088;2023-07-02T01:26:14;3.08;;;2.78;;
78563;SDS011;67856;47.754;19.088;2023-07-02T01:29:17;3.40;;;3.10;;
78563;SDS011;67856;47.754;19.088;2023-07-02T01:32:20;3.50;;;3.00;;
78563;SDS011;67856;47.754;19.088;2023-07-02T01:35:25;3.03;;;2.72;;
78563;SDS011;67856;47.754;19.088;2023-07-02T01:38:28;3.50;;;3.10;;
78563;SDS011;67856;47.754;19.088;2023-07-02T01:41:33;3.45;;;3.15;;
78563;SDS011;67856;47.754;19.088;2023-07-02T01:44:45;3.10;;;2.80;;
78563;SDS011;67856;47.754;19.088;2023-07-02T01:47:48;3.20;;;2.90;;
78563;SDS011;67856;47.754;19.088;2023-07-02T01:50:51;3.55;;;3.20;;
78563;SDS011;67856;47.754;19.088;2023-07-02T01:53:53;3.35;;;3.05;;
78563;SDS011;67856;47.754;19.088;2023-07-02T01:56:56;3.28;;;2.90;;
78563;SDS011;67856;47.754;19.088;2023-07-02T01:59:58;3.90;;;3.10;;
78563;SDS011;67856;47.754;19.088;2023-07-02T02:03:01;3.70;;;3.20;;
78563;SDS011;67856;47.754;19.088;2023-07-02T02:06:03;3.53;;;3.20;;
78563;SDS011;67856;47.754;19.088;2023-07-02T02:09:06;3.80;;;3.40;;
78563;SDS011;67856;47.754;19.088;2023-07-02T02:12:09;4.20;;;3.40;;
78563;SDS011;67856;47.754;19.088;2023-07-02T02:15:12;3.40;;;3.10;;
78563;SDS011;67856;47.754;19.088;2023-07-02T02:18:16;3.97;;;3.07;;
78563;SDS011;67856;47.754;19.088;2023-07-02T02:21:19;3.50;;;3.20;;
78563;SDS011;67856;47.754;19.088;2023-07-02T02:24:24;3.30;;;3.00;;
78563;SDS011;67856;47.754;19.088;2023-07-02T02:27:28;3.30;;;3.00;;
78563;SDS011;67856;47.754;19.088;2023-07-02T02:30:30;3.50;;;3.03;;
78563;SDS011;67856;47.754;19.088;2023-07-02T02:33:33;3.70;;;3.20;;
78563;SDS011;67856;47.754;19.088;2023-07-02T02:36:38;3.90;;;3.20;;
78563;SDS011;67856;47.754;19.088;2023-07-02T02:39:41;3.60;;;3.20;;
78563;SDS011;67856;47.754;19.088;2023-07-02T02:42:43;3.30;;;3.00;;
78563;SDS011;67856;47.754;19.088;2023-07-02T02:45:46;4.50;;;3.27;;
78563;SDS011;67856;47.754;19.088;2023-07-02T02:48:49;3.43;;;3.10;;
78563;SDS011;67856;47.754;19.088;2023-07-02T02:51:52;3.30;;;3.00;;
78563;SDS011;67856;47.754;19.088;2023-07-02T02:54:54;3.85;;;3.22;;
78563;SDS011;67856;47.754;19.088;2023-07-02T02:57:57;3.63;;;3.20;;
78563;SDS011;67856;47.754;19.088;2023-07-02T03:00:59;3.47;;;3.17;;
78563;SDS011;67856;47.754;19.088;2023-07-02T03:04:02;3.47;;;3.17;;
78563;SDS011;67856;47.754;19.088;2023-07-02T03:07:04;3.53;;;3.22;;
78563;SDS011;67856;47.754;19.088;2023-07-02T03:10:07;3.42;;;3.10;;
78563;SDS011;67856;47.754;19.088;2023-07-02T03:13:11;3.33;;;3.03;;
78563;SDS011;67856;47.754;19.088;2023-07-02T03:16:13;4.70;;;2.83;;
78563;SDS011;67856;47.754;19.088;2023-07-02T03:19:16;3.20;;;2.87;;
78563;SDS011;67856;47.754;19.088;2023-07-02T03:22:18;4.05;;;2.90;;
78563;SDS011;67856;47.754;19.088;2023-07-02T03:25:21;3.70;;;2.78;;
78563;SDS011;67856;47.754;19.088;2023-07-02T03:28:23;3.25;;;2.95;;
78563;SDS011;67856;47.754;19.088;2023-07-02T03:31:25;3.70;;;3.30;;
78563;SDS011;67856;47.754;19.088;2023-07-02T03:34:28;4.87;;;2.93;;
78563;SDS011;67856;47.754;19.088;2023-07-02T03:37:30;3.35;;;3.05;;
78563;SDS011;67856;47.754;19.088;2023-07-02T03:40:33;3.20;;;2.80;;
78563;SDS011;67856;47.754;19.088;2023-07-02T03:43:35;4.03;;;2.80;;
78563;SDS011;67856;47.754;19.088;2023-07-02T03:46:38;2.67;;;2.47;;
78563;SDS011;67856;47.754;19.088;2023-07-02T03:49:40;3.37;;;2.90;;
78563;SDS011;67856;47.754;19.088;2023-07-02T03:52:42;3.17;;;2.88;;
78563;SDS011;67856;47.754;19.088;2023-07-02T03:55:45;3.08;;;2.78;;
78563;SDS011;67856;47.754;19.088;2023-07-02T03:58:47;3.10;;;2.80;;
78563;SDS011;67856;47.754;19.088;2023-07-02T04:01:50;3.37;;;3.07;;
78563;SDS011;67856;47.754;19.088;2023-07-02T04:04:53;3.30;;;3.00;;
78563;SDS011;67856;47.754;19.088;2023-07-02T04:07:55;3.30;;;3.00;;
78563;SDS011;67856;47.754;19.088;2023-07-02T04:10:58;3.85;;;2.85;;
78563;SDS011;67856;47.754;19.088;2023-07-02T04:14:00;3.50;;;2.70;;
78563;SDS011;67856;47.754;19.088;2023-07-02T04:17:03;3.00;;;2.50;;
78563;SDS011;67856;47.754;19.088;2023-07-02T04:20:06;3.70;;;2.80;;
78563;SDS011;67856;47.754;19.088;2023-07-02T04:23:09;3.10;;;2.70;;
78563;SDS011;67856;47.754;19.088;2023-07-02T04:26:12;3.47;;;2.70;;
78563;SDS011;67856;47.754;19.088;2023-07-02T04:29:34;3.10;;;2.70;;
78563;SDS011;67856;47.754;19.088;2023-07-02T04:32:37;3.23;;;2.93;;
78563;SDS011;67856;47.754;19.088;2023-07-02T04:35:42;4.43;;;3.73;;
78563;SDS011;67856;47.754;19.088;2023-07-02T04:38:45;3.45;;;2.92;;
78563;SDS011;67856;47.754;19.088;2023-07-02T04:41:47;2.95;;;2.50;;
78563;SDS011;67856;47.754;19.088;2023-07-02T04:44:54;2.95;;;2.58;;
78563;SDS011;67856;47.754;19.088;2023-07-02T04:47:57;3.27;;;2.70;;
78563;SDS011;67856;47.754;19.088;2023-07-02T04:50:59;3.30;;;3.00;;
78563;SDS011;67856;47.754;19.088;2023-07-02T04:54:02;3.00;;;2.70;;
78563;SDS011;67856;47.754;19.088;2023-07-02T04:57:04;2.90;;;2.60;;
78563;SDS011;67856;47.754;19.088;2023-07-02T05:00:07;3.17;;;2.88;;
78563;SDS011;67856;47.754;19.088;2023-07-02T05:03:10;3.60;;;2.90;;
78563;SDS011;67856;47.754;19.088;2023-07-02T05:06:13;3.03;;;2.73;;
78563;SDS011;67856;47.754;19.088;2023-07-02T05:09:15;2.95;;;2.67;;
78563;SDS011;67856;47.754;19.088;2023-07-02T05:12:18;2.80;;;2.50;;
78563;SDS011;67856;47.754;19.088;2023-07-02T05:15:21;2.88;;;2.58;;
78563;SDS011;67856;47.754;19.088;2023-07-02T05:18:23;3.17;;;2.70;;
78563;SDS011;67856;47.754;19.088;2023-07-02T05:21:26;3.20;;;2.90;;
78563;SDS011;67856;47.754;19.088;2023-07-02T05:24:28;3.28;;;2.70;;
78563;SDS011;67856;47.754;19.088;2023-07-02T05:27:30;3.03;;;2.72;;
78563;SDS011;67856;47.754;19.088;2023-07-02T05:30:33;2.70;;;2.50;;
78563;SDS011;67856;47.754;19.088;2023-07-02T05:33:35;2.77;;;2.50;;
78563;SDS011;67856;47.754;19.088;2023-07-02T05:36:38;3.20;;;2.80;;
78563;SDS011;67856;47.754;19.088;2023-07-02T05:39:40;3.03;;;2.72;;
78563;SDS011;67856;47.754;19.088;2023-07-02T05:42:43;2.95;;;2.70;;
78563;SDS011;67856;47.754;19.088;2023-07-02T05:45:45;3.17;;;2.80;;
78563;SDS011;67856;47.754;19.088;2023-07-02T05:48:48;2.70;;;2.50;;
78563;SDS011;67856;47.754;19.088;2023-07-02T05:51:50;3.13;;;2.83;;
78563;SDS011;67856;47.754;19.088;2023-07-02T05:54:53;2.92;;;2.63;;
78563;SDS011;67856;47.754;19.088;2023-07-02T05:57:55;3.00;;;2.70;;
78563;SDS011;67856;47.754;19.088;2023-07-02T06:01:03;2.92;;;2.50;;
78563;SDS011;67856;47.754;19.088;2023-07-02T06:04:07;3.27;;;2.40;;
78563;SDS011;67856;47.754;19.088;2023-07-02T06:07:09;2.60;;;2.30;;
78563;SDS011;67856;47.754;19.088;2023-07-02T06:10:12;3.70;;;2.83;;
78563;SDS011;67856;47.754;19.088;2023-07-02T06:13:14;2.90;;;2.60;;
78563;SDS011;67856;47.754;19.088;2023-07-02T06:16:17;2.80;;;2.60;;
78563;SDS011;67856;47.754;19.088;2023-07-02T06:19:19;2.80;;;2.50;;
78563;SDS011;67856;47.754;19.088;2023-07-02T06:22:22;2.80;;;2.50;;
78563;SDS011;67856;47.754;19.088;2023-07-02T06:25:25;2.40;;;2.20;;
78563;SDS011;67856;47.754;19.088;2023-07-02T06:28:28;2.65;;;2.45;;
78563;SDS011;67856;47.754;19.088;2023-07-02T06:31:30;2.60;;;2.40;;
78563;SDS011;67856;47.754;19.088;2023-07-02T06:34:33;2.60;;;2.40;;
78563;SDS011;67856;47.754;19.088;2023-07-02T06:37:35;2.80;;;2.50;;
78563;SDS011;67856;47.754;19.088;2023-07-02T06:40:38;2.50;;;2.30;;
78563;SDS011;67856;47.754;19.088;2023-07-02T06:43:43;2.88;;;2.50;;
78563;SDS011;67856;47.754;19.088;2023-07-02T06:46:46;2.53;;;2.33;;
78563;SDS011;67856;47.754;19.088;2023-07-02T06:49:48;2.63;;;2.43;;
78563;SDS011;67856;47.754;19.088;2023-07-02T06:52:51;2.67;;;2.23;;
78563;SDS011;67856;47.754;19.088;2023-07-02T06:55:53;3.08;;;2.78;;
78563;SDS011;67856;47.754;19.088;2023-07-02T06:58:56;2.40;;;2.20;;
78563;SDS011;67856;47.754;19.088;2023-07-02T07:01:58;2.50;;;2.30;;
78563;SDS011;67856;47.754;19.088;2023-07-02T07:05:00;2.30;;;2.10;;
78563;SDS011;67856;47.754;19.088;2023-07-02T07:08:03;2.87;;;2.57;;
78563;SDS011;67856;47.754;19.088;2023-07-02T07:11:06;2.97;;;2.47;;
78563;SDS011;67856;47.754;19.088;2023-07-02T07:14:08;3.00;;;2.45;;
78563;SDS011;67856;47.754;19.088;2023-07-02T07:17:11;2.58;;;2.38;;
78563;SDS011;67856;47.754;19.088;2023-07-02T07:20:13;2.43;;;2.23;;
78563;SDS011;67856;47.754;19.088;2023-07-02T07:23:16;2.73;;;2.43;;
78563;SDS011;67856;47.754;19.088;2023-07-02T07:26:19;2.90;;;2.60;;
78563;SDS011;67856;47.754;19.088;2023-07-02T07:29:22;2.50;;;2.30;;
78563;SDS011;67856;47.754;19.088;2023-07-02T07:32:24;2.70;;;2.50;;
78563;SDS011;67856;47.754;19.088;2023-07-02T07:35:26;2.80;;;2.60;;
78563;SDS011;67856;47.754;19.088;2023-07-02T07:38:29;2.77;;;2.50;;
78563;SDS011;67856;47.754;19.088;2023-07-02T07:41:31;2.58;;;2.38;;
78563;SDS011;67856;47.754;19.088;2023-07-02T07:44:34;2.65;;;2.45;;
78563;SDS011;67856;47.754;19.088;2023-07-02T07:47:37;2.70;;;2.50;;
78563;SDS011;67856;47.754;19.088;2023-07-02T07:50:40;2.50;;;2.30;;
78563;SDS011;67856;47.754;19.088;2023-07-02T07:53:42;2.57;;;2.37;;
78563;SDS011;67856;47.754;19.088;2023-07-02T07:56:45;2.60;;;2.40;;
78563;SDS011;67856;47.754;19.088;2023-07-02T07:59:47;2.60;;;2.40;;
78563;SDS011;67856;47.754;19.088;2023-07-02T08:02:50;2.63;;;2.42;;
78563;SDS011;67856;47.754;19.088;2023-07-02T08:05:54;2.73;;;2.53;;
78563;SDS011;67856;47.754;19.088;2023-07-02T08:08:56;2.80;;;2.60;;
78563;SDS011;67856;47.754;19.088;2023-07-02T08:11:59;2.85;;;2.45;;
78563;SDS011;67856;47.754;19.088;2023-07-02T08:15:01;2.70;;;2.50;;
78563;SDS011;67856;47.754;19.088;2023-07-02T08:18:04;2.53;;;2.33;;
78563;SDS011;67856;47.754;19.088;2023-07-02T08:21:08;2.43;;;2.23;;
78563;SDS011;67856;47.754;19.088;2023-07-02T08:24:11;3.10;;;2.50;;
78563;SDS011;67856;47.754;19.088;2023-07-02T08:27:15;2.40;;;2.20;;
78563;SDS011;67856;47.754;19.088;2023-07-02T08:30:21;2.67;;;2.47;;
78563;SDS011;67856;47.754;19.088;2023-07-02T08:33:23;2.90;;;2.50;;
78563;SDS011;67856;47.754;19.088;2023-07-02T08:36:26;3.90;;;2.67;;
78563;SDS011;67856;47.754;19.088;2023-07-02T08:39:28;2.80;;;2.60;;
78563;SDS011;67856;47.754;19.088;2023-07-02T08:42:32;2.50;;;2.30;;
78563;SDS011;67856;47.754;19.088;2023-07-02T08:45:34;2.40;;;2.20;;
78563;SDS011;67856;47.754;19.088;2023-07-02T08:48:37;2.80;;;2.47;;
78563;SDS011;67856;47.754;19.088;2023-07-02T08:51:40;2.60;;;2.40;;
78563;SDS011;67856;47.754;19.088;2023-07-02T08:54:42;2.73;;;2.43;;
78563;SDS011;67856;47.754;19.088;2023-07-02T08:57:52;2.30;;;2.10;;
78563;SDS011;67856;47.754;19.088;2023-07-02T09:04:14;2.47;;;2.28;;
78563;SDS011;67856;47.754;19.088;2023-07-02T09:07:27;2.50;;;2.30;;
78563;SDS011;67856;47.754;19.088;2023-07-02T09:10:29;2.50;;;2.30;;
78563;SDS011;67856;47.754;19.088;2023-07-02T09:16:45;2.50;;;2.30;;
78563;SDS011;67856;47.754;19.088;2023-07-02T09:19:49;2.60;;;2.30;;
78563;SDS011;67856;47.754;19.088;2023-07-02T09:22:55;2.47;;;2.27;;
78563;SDS011;67856;47.754;19.088;2023-07-02T09:25:58;2.43;;;2.23;;
78563;SDS011;67856;47.754;19.088;2023-07-02T09:29:00;2.42;;;2.22;;
78563;SDS011;67856;47.754;19.088;2023-07-02T09:32:04;3.17;;;2.53;;
78563;SDS011;67856;47.754;19.088;2023-07-02T09:35:12;2.95;;;2.40;;
78563;SDS011;67856;47.754;19.088;2023-07-02T09:38:15;2.50;;;2.30;;
78563;SDS011;67856;47.754;19.088;2023-07-02T09:41:17;2.97;;;2.43;;
78563;SDS011;67856;47.754;19.088;2023-07-02T09:44:20;2.53;;;2.33;;
78563;SDS011;67856;47.754;19.088;2023-07-02T09:47:22;2.75;;;2.28;;
78563;SDS011;67856;47.754;19.088;2023-07-02T09:50:26;2.50;;;2.30;;
78563;SDS011;67856;47.754;19.088;2023-07-02T09:53:29;2.57;;;2.37;;
78563;SDS011;67856;47.754;19.088;2023-07-02T09:56:32;3.20;;;2.60;;
78563;SDS011;67856;47.754;19.088;2023-07-02T09:59:34;2.80;;;2.40;;
78563;SDS011;67856;47.754;19.088;2023-07-02T10:02:37;2.75;;;2.50;;
78563;SDS011;67856;47.754;19.088;2023-07-02T10:05:40;2.45;;;2.25;;
78563;SDS011;67856;47.754;19.088;2023-07-02T10:08:55;3.30;;;2.73;;
78563;SDS011;67856;47.754;19.088;2023-07-02T10:11:58;2.80;;;2.40;;
78563;SDS011;67856;47.754;19.088;2023-07-02T10:15:00;3.25;;;2.47;;
78563;SDS011;67856;47.754;19.088;2023-07-02T10:18:03;2.70;;;2.40;;
78563;SDS011;67856;47.754;19.088;2023-07-02T10:21:15;2.80;;;2.60;;
78563;SDS011;67856;47.754;19.088;2023-07-02T10:24:18;2.50;;;2.30;;
78563;SDS011;67856;47.754;19.088;2023-07-02T10:27:32;2.57;;;2.37;;
78563;SDS011;67856;47.754;19.088;2023-07-02T10:30:38;2.92;;;2.67;;
78563;SDS011;67856;47.754;19.088;2023-07-02T10:33:43;2.60;;;2.22;;
78563;SDS011;67856;47.754;19.088;2023-07-02T10:36:46;2.47;;;2.20;;
78563;SDS011;67856;47.754;19.088;2023-07-02T10:39:48;2.53;;;2.33;;
78563;SDS011;67856;47.754;19.088;2023-07-02T10:42:51;2.50;;;2.27;;
78563;SDS011;67856;47.754;19.088;2023-07-02T10:45:54;2.40;;;2.20;;
78563;SDS011;67856;47.754;19.088;2023-07-02T10:48:57;2.45;;;2.20;;
78563;SDS011;67856;47.754;19.088;2023-07-02T10:52:00;2.40;;;2.20;;
78563;SDS011;67856;47.754;19.088;2023-07-02T10:55:03;2.30;;;2.10;;
78563;SDS011;67856;47.754;19.088;2023-07-02T10:58:07;2.90;;;2.60;;
78563;SDS011;67856;47.754;19.088;2023-07-02T11:01:10;2.50;;;2.30;;
78563;SDS011;67856;47.754;19.088;2023-07-02T11:04:13;2.80;;;2.50;;
78563;SDS011;67856;47.754;19.088;2023-07-02T11:07:17;2.45;;;2.20;;
78563;SDS011;67856;47.754;19.088;2023-07-02T11:10:24;2.47;;;2.27;;
78563;SDS011;67856;47.754;19.088;2023-07-02T11:13:27;2.40;;;2.20;;
78563;SDS011;67856;47.754;19.088;2023-07-02T11:16:29;4.05;;;2.88;;
78563;SDS011;67856;47.754;19.088;2023-07-02T11:19:32;2.90;;;2.25;;
78563;SDS011;67856;47.754;19.088;2023-07-02T11:22:35;3.03;;;2.53;;
78563;SDS011;67856;47.754;19.088;2023-07-02T11:25:39;2.60;;;2.10;;
78563;SDS011;67856;47.754;19.088;2023-07-02T11:28:49;2.70;;;2.40;;
78563;SDS011;67856;47.754;19.088;2023-07-02T11:32:03;2.90;;;2.60;;
78563;SDS011;67856;47.754;19.088;2023-07-02T11:35:06;2.67;;;2.40;;
78563;SDS011;67856;47.754;19.088;2023-07-02T11:38:09;3.13;;;2.10;;
78563;SDS011;67856;47.754;19.088;2023-07-02T11:41:12;2.75;;;2.45;;
78563;SDS011;67856;47.754;19.088;2023-07-02T11:44:15;2.30;;;2.10;;
78563;SDS011;67856;47.754;19.088;2023-07-02T11:47:17;2.65;;;2.30;;
78563;SDS011;67856;47.754;19.088;2023-07-02T11:50:20;2.50;;;2.30;;
78563;SDS011;67856;47.754;19.088;2023-07-02T11:53:28;3.05;;;2.30;;
78563;SDS011;67856;47.754;19.088;2023-07-02T11:56:30;4.10;;;2.10;;
78563;SDS011;67856;47.754;19.088;2023-07-02T11:59:33;2.33;;;2.13;;
78563;SDS011;67856;47.754;19.088;2023-07-02T12:02:35;2.47;;;2.28;;
78563;SDS011;67856;47.754;19.088;2023-07-02T12:05:38;2.10;;;1.90;;
78563;SDS011;67856;47.754;19.088;2023-07-02T12:08:40;2.20;;;2.00;;
78563;SDS011;67856;47.754;19.088;2023-07-02T12:11:43;2.30;;;2.10;;
78563;SDS011;67856;47.754;19.088;2023-07-02T12:14:47;2.47;;;2.27;;
78563;SDS011;67856;47.754;19.088;2023-07-02T12:17:50;2.45;;;2.25;;
78563;SDS011;67856;47.754;19.088;2023-07-02T12:20:52;2.30;;;2.10;;
78563;SDS011;67856;47.754;19.088;2023-07-02T12:23:54;2.30;;;2.10;;
78563;SDS011;67856;47.754;19.088;2023-07-02T12:26:57;2.17;;;1.97;;
78563;SDS011;67856;47.754;19.088;2023-07-02T12:29:59;2.30;;;2.10;;
78563;SDS011;67856;47.754;19.088;2023-07-02T12:33:02;2.40;;;2.15;;
78563;SDS011;67856;47.754;19.088;2023-07-02T12:36:04;2.60;;;2.08;;
78563;SDS011;67856;47.754;19.088;2023-07-02T12:39:07;2.28;;;2.08;;
78563;SDS011;67856;47.754;19.088;2023-07-02T12:42:09;2.40;;;2.20;;
78563;SDS011;67856;47.754;19.088;2023-07-02T12:45:12;3.60;;;2.17;;
78563;SDS011;67856;47.754;19.088;2023-07-02T12:48:15;2.13;;;1.92;;
78563;SDS011;67856;47.754;19.088;2023-07-02T12:51:18;2.20;;;1.98;;
78563;SDS011;67856;47.754;19.088;2023-07-02T12:54:21;2.33;;;1.85;;
78563;SDS011;67856;47.754;19.088;2023-07-02T12:57:23;2.40;;;2.20;;
78563;SDS011;67856;47.754;19.088;2023-07-02T13:00:28;2.47;;;2.10;;
78563;SDS011;67856;47.754;19.088;2023-07-02T13:03:30;3.50;;;2.13;;
78563;SDS011;67856;47.754;19.088;2023-07-02T13:06:33;2.03;;;1.83;;
78563;SDS011;67856;47.754;19.088;2023-07-02T13:09:42;2.03;;;1.83;;
78563;SDS011;67856;47.754;19.088;2023-07-02T13:12:45;2.20;;;2.00;;
78563;SDS011;67856;47.754;19.088;2023-07-02T13:15:47;3.07;;;1.70;;
78563;SDS011;67856;47.754;19.088;2023-07-02T13:18:51;2.15;;;1.95;;
78563;SDS011;67856;47.754;19.088;2023-07-02T13:21:54;2.10;;;1.88;;
78563;SDS011;67856;47.754;19.088;2023-07-02T13:24:56;1.83;;;1.73;;
78563;SDS011;67856;47.754;19.088;2023-07-02T13:27:59;2.40;;;2.13;;
78563;SDS011;67856;47.754;19.088;2023-07-02T13:31:01;2.40;;;2.20;;
78563;SDS011;67856;47.754;19.088;2023-07-02T13:34:03;2.10;;;1.90;;
78563;SDS011;67856;47.754;19.088;2023-07-02T13:37:06;2.20;;;2.00;;
78563;SDS011;67856;47.754;19.088;2023-07-02T13:40:10;2.38;;;2.17;;
78563;SDS011;67856;47.754;19.088;2023-07-02T13:43:14;2.47;;;1.70;;
78563;SDS011;67856;47.754;19.088;2023-07-02T13:46:17;2.00;;;1.87;;
78563;SDS011;67856;47.754;19.088;2023-07-02T13:49:19;3.72;;;2.03;;
78563;SDS011;67856;47.754;19.088;2023-07-02T13:52:23;1.80;;;1.70;;
78563;SDS011;67856;47.754;19.088;2023-07-02T13:55:25;2.00;;;1.70;;
78563;SDS011;67856;47.754;19.088;2023-07-02T14:01:59;2.47;;;2.10;;
78563;SDS011;67856;47.754;19.088;2023-07-02T14:05:02;2.30;;;2.10;;
78563;SDS011;67856;47.754;19.088;2023-07-02T14:08:04;2.38;;;2.05;;
78563;SDS011;67856;47.754;19.088;2023-07-02T14:11:07;2.20;;;2.00;;
78563;SDS011;67856;47.754;19.088;2023-07-02T14:14:11;2.53;;;1.90;;
78563;SDS011;67856;47.754;19.088;2023-07-02T14:17:13;2.10;;;1.90;;
78563;SDS011;67856;47.754;19.088;2023-07-02T14:20:16;2.30;;;2.10;;
78563;SDS011;67856;47.754;19.088;2023-07-02T14:23:18;2.00;;;1.80;;
78563;SDS011;67856;47.754;19.088;2023-07-02T14:26:21;2.30;;;2.10;;
78563;SDS011;67856;47.754;19.088;2023-07-02T14:29:23;2.00;;;1.80;;
78563;SDS011;67856;47.754;19.088;2023-07-02T14:32:29;2.17;;;1.80;;
78563;SDS011;67856;47.754;19.088;2023-07-02T14:35:31;2.30;;;2.03;;
78563;SDS011;67856;47.754;19.088;2023-07-02T14:38:34;2.13;;;1.90;;
78563;SDS011;67856;47.754;19.088;2023-07-02T14:41:36;2.00;;;1.80;;
78563;SDS011;67856;47.754;19.088;2023-07-02T14:44:39;2.03;;;1.83;;
78563;SDS011;67856;47.754;19.088;2023-07-02T14:47:41;2.37;;;2.17;;
78563;SDS011;67856;47.754;19.088;2023-07-02T14:50:48;2.20;;;2.00;;
78563;SDS011;67856;47.754;19.088;2023-07-02T14:53:52;2.55;;;1.90;;
78563;SDS011;67856;47.754;19.088;2023-07-02T14:56:54;2.35;;;2.15;;
78563;SDS011;67856;47.754;19.088;2023-07-02T14:59:57;2.10;;;1.90;;
78563;SDS011;67856;47.754;19.088;2023-07-02T15:02:59;2.00;;;1.80;;
78563;SDS011;67856;47.754;19.088;2023-07-02T15:06:13;2.20;;;2.00;;
78563;SDS011;67856;47.754;19.088;2023-07-02T15:09:17;2.50;;;2.05;;
78563;SDS011;67856;47.754;19.088;2023-07-02T15:12:20;2.20;;;2.00;;
78563;SDS011;67856;47.754;19.088;2023-07-02T15:15:23;2.00;;;1.85;;
78563;SDS011;67856;47.754;19.088;2023-07-02T15:18:25;2.60;;;2.10;;
78563;SDS011;67856;47.754;19.088;2023-07-02T15:21:29;2.80;;;1.92;;
78563;SDS011;67856;47.754;19.088;2023-07-02T15:24:31;2.00;;;1.70;;
78563;SDS011;67856;47.754;19.088;2023-07-02T15:27:36;2.30;;;2.03;;
78563;SDS011;67856;47.754;19.088;2023-07-02T15:30:39;2.07;;;1.80;;
78563;SDS011;67856;47.754;19.088;2023-07-02T15:33:42;2.00;;;1.80;;
78563;SDS011;67856;47.754;19.088;2023-07-02T15:36:46;2.72;;;1.40;;
78563;SDS011;67856;47.754;19.088;2023-07-02T15:39:48;3.50;;;1.90;;
78563;SDS011;67856;47.754;19.088;2023-07-02T15:42:51;1.98;;;1.77;;
78563;SDS011;67856;47.754;19.088;2023-07-02T15:45:54;2.20;;;2.00;;
78563;SDS011;67856;47.754;19.088;2023-07-02T15:48:58;2.17;;;1.97;;
78563;SDS011;67856;47.754;19.088;2023-07-02T15:52:05;2.20;;;2.00;;
78563;SDS011;67856;47.754;19.088;2023-07-02T15:55:10;2.00;;;1.80;;
78563;SDS011;67856;47.754;19.088;2023-07-02T15:58:13;2.22;;;2.00;;
78563;SDS011;67856;47.754;19.088;2023-07-02T16:01:18;2.00;;;1.80;;
78563;SDS011;67856;47.754;19.088;2023-07-02T16:04:22;2.10;;;1.90;;
78563;SDS011;67856;47.754;19.088;2023-07-02T16:07:25;2.10;;;1.83;;
78563;SDS011;67856;47.754;19.088;2023-07-02T16:10:27;2.05;;;1.75;;
78563;SDS011;67856;47.754;19.088;2023-07-02T16:13:29;2.20;;;2.00;;
78563;SDS011;67856;47.754;19.088;2023-07-02T16:16:32;2.17;;;1.97;;
78563;SDS011;67856;47.754;19.088;2023-07-02T16:19:35;2.10;;;1.87;;
78563;SDS011;67856;47.754;19.088;2023-07-02T16:22:38;1.90;;;1.70;;
78563;SDS011;67856;47.754;19.088;2023-07-02T16:25:40;2.10;;;1.90;;
78563;SDS011;67856;47.754;19.088;2023-07-02T16:28:43;1.90;;;1.80;;
78563;SDS011;67856;47.754;19.088;2023-07-02T16:31:47;2.23;;;2.03;;
78563;SDS011;67856;47.754;19.088;2023-07-02T16:34:50;2.20;;;2.00;;
78563;SDS011;67856;47.754;19.088;2023-07-02T16:37:52;2.20;;;1.90;;
78563;SDS011;67856;47.754;19.088;2023-07-02T16:40:55;2.10;;;1.90;;
78563;SDS011;67856;47.754;19.088;2023-07-02T16:43:57;2.10;;;1.90;;
78563;SDS011;67856;47.754;19.088;2023-07-02T16:47:00;2.30;;;2.10;;
78563;SDS011;67856;47.754;19.088;2023-07-02T16:50:02;2.50;;;2.10;;
78563;SDS011;67856;47.754;19.088;2023-07-02T16:53:05;2.25;;;2.05;;
78563;SDS011;67856;47.754;19.088;2023-07-02T16:56:07;2.10;;;1.90;;
78563;SDS011;67856;47.754;19.088;2023-07-02T16:59:11;2.20;;;2.00;;
78563;SDS011;67856;47.754;19.088;2023-07-02T17:02:15;2.27;;;2.03;;
78563;SDS011;67856;47.754;19.088;2023-07-02T17:05:17;2.30;;;2.10;;
78563;SDS011;67856;47.754;19.088;2023-07-02T17:08:19;2.10;;;1.90;;
78563;SDS011;67856;47.754;19.088;2023-07-02T17:11:22;2.17;;;1.98;;
78563;SDS011;67856;47.754;19.088;2023-07-02T17:14:24;1.83;;;1.70;;
78563;SDS011;67856;47.754;19.088;2023-07-02T17:17:29;2.00;;;1.80;;
78563;SDS011;67856;47.754;19.088;2023-07-02T17:20:32;2.13;;;1.90;;
78563;SDS011;67856;47.754;19.088;2023-07-02T17:23:35;2.00;;;1.80;;
78563;SDS011;67856;47.754;19.088;2023-07-02T17:26:39;2.30;;;2.10;;
78563;SDS011;67856;47.754;19.088;2023-07-02T17:29:42;2.80;;;1.83;;
78563;SDS011;67856;47.754;19.088;2023-07-02T17:32:45;2.37;;;2.03;;
78563;SDS011;67856;47.754;19.088;2023-07-02T17:35:48;2.17;;;1.97;;
78563;SDS011;67856;47.754;19.088;2023-07-02T17:38:51;2.13;;;1.92;;
78563;SDS011;67856;47.754;19.088;2023-07-02T17:41:54;2.05;;;1.80;;
78563;SDS011;67856;47.754;19.088;2023-07-02T17:44:57;1.95;;;1.85;;
78563;SDS011;67856;47.754;19.088;2023-07-02T17:48:03;2.30;;;1.90;;
78563;SDS011;67856;47.754;19.088;2023-07-02T17:51:06;2.10;;;1.93;;
78563;SDS011;67856;47.754;19.088;2023-07-02T17:54:09;2.10;;;1.90;;
78563;SDS011;67856;47.754;19.088;2023-07-02T17:57:12;1.80;;;1.70;;
78563;SDS011;67856;47.754;19.088;2023-07-02T18:00:15;2.08;;;1.88;;
78563;SDS011;67856;47.754;19.088;2023-07-02T18:03:17;2.13;;;1.90;;
78563;SDS011;67856;47.754;19.088;2023-07-02T18:06:22;1.90;;;1.67;;
78563;SDS011;67856;47.754;19.088;2023-07-02T18:09:24;2.28;;;2.08;;
78563;SDS011;67856;47.754;19.088;2023-07-02T18:12:27;2.00;;;1.83;;
78563;SDS011;67856;47.754;19.088;2023-07-02T18:15:30;2.80;;;2.00;;